Terminal Aerodrome Forecast
Issued by NWS

Home | Current Version | Previous Version | Text Only | Print | Product List | Glossary On
Versions: 1 2 3 4 5 6 7 8 9 10 11 12
000
FTUS45 KRIW 051726
TAFWRL
TAF
KWRL 051726Z 0518/0618 32014G22KT P6SM VCSH BKN050 OVC070
     FM052100 32012KT P6SM SCT060
     FM060400 VRB05KT P6SM SCT060=

USA.gov is the U.S. government's official web portal to all federal, state and local government web resources and services.